createdAt,value
2023-05-16T00:02:30.099Z,13.30
2023-05-16T00:04:59.230Z,12.77
2023-05-16T00:07:26.020Z,13.93
2023-05-16T00:19:13.086Z,14.98
2023-05-16T00:21:44.236Z,15.38
2023-05-16T00:24:12.274Z,14.20
2023-05-16T00:26:45.406Z,15.70
2023-05-16T00:29:14.465Z,16.13
2023-05-16T00:32:08.925Z,16.92
2023-05-16T00:34:39.071Z,15.18
2023-05-16T00:37:35.612Z,16.92
2023-05-16T00:40:04.354Z,16.55
2023-05-16T00:42:39.148Z,15.93
2023-05-16T00:45:09.746Z,16.02
2023-05-16T00:47:39.795Z,16.73
2023-05-16T00:50:26.688Z,16.55
2023-05-16T00:52:56.731Z,16.33
2023-05-16T00:55:23.765Z,16.13
2023-05-16T00:57:53.996Z,15.95
2023-05-16T01:00:24.313Z,16.27
2023-05-16T01:02:56.064Z,14.77
2023-05-16T01:09:01.044Z,14.70
2023-05-16T01:11:51.576Z,17.17
2023-05-16T01:18:08.943Z,17.13
2023-05-16T01:21:15.207Z,16.92
2023-05-16T01:24:03.899Z,18.75
2023-05-16T01:26:35.262Z,17.77
2023-05-16T01:29:06.807Z,20.83
2023-05-16T01:31:37.998Z,19.63
2023-05-16T01:34:04.992Z,19.85
2023-05-16T01:36:45.108Z,21.27
2023-05-16T01:39:54.930Z,21.02
2023-05-16T01:43:11.387Z,21.30
2023-05-16T01:45:50.536Z,20.48
2023-05-16T01:48:27.287Z,21.45
2023-05-16T01:51:26.509Z,21.95
2023-05-16T01:54:05.416Z,20.60
2023-05-16T01:56:33.594Z,21.13
2023-05-16T01:59:08.283Z,21.90
2023-05-16T02:01:35.139Z,22.73
2023-05-16T02:04:05.981Z,22.83
2023-05-16T02:06:34.242Z,22.73
2023-05-16T02:09:03.228Z,22.00
2023-05-16T02:11:29.891Z,22.70
2023-05-16T02:14:00.187Z,23.63
2023-05-16T02:16:55.600Z,24.67
2023-05-16T02:19:23.420Z,23.10
2023-05-16T02:21:58.753Z,22.92
2023-05-16T02:24:27.886Z,24.10
2023-05-16T02:27:24.603Z,23.30
2023-05-16T02:29:52.784Z,22.38
2023-05-16T02:32:23.160Z,23.80
2023-05-16T02:37:27.706Z,23.35
2023-05-16T02:39:55.800Z,23.92
2023-05-16T02:42:30.491Z,22.58
2023-05-16T02:44:58.399Z,24.73
2023-05-16T02:47:54.583Z,22.83
2023-05-16T02:50:21.440Z,23.13
2023-05-16T02:52:50.206Z,23.23
2023-05-16T02:55:22.360Z,23.50
2023-05-16T03:00:23.223Z,23.15
2023-05-16T03:02:50.081Z,24.02
2023-05-16T03:05:26.798Z,24.70
2023-05-16T03:07:57.008Z,24.75
2023-05-16T03:10:23.626Z,22.50
2023-05-16T03:12:53.542Z,24.17
2023-05-16T03:15:20.378Z,23.80
2023-05-16T03:17:57.422Z,23.70
2023-05-16T03:20:26.306Z,22.77
2023-05-16T03:22:54.204Z,22.33
2023-05-16T03:25:23.316Z,21.45
2023-05-16T03:28:17.669Z,21.25
2023-05-16T03:30:50.529Z,21.10
2023-05-16T03:33:44.415Z,19.75
2023-05-16T03:36:11.688Z,21.77
2023-05-16T03:38:44.447Z,19.85
2023-05-16T03:41:16.368Z,21.58
2023-05-16T03:43:44.150Z,20.25
2023-05-16T03:46:21.384Z,19.77
2023-05-16T03:48:55.573Z,19.10
2023-05-16T03:52:06.093Z,19.58
2023-05-16T03:54:35.983Z,18.83
2023-05-16T04:05:51.712Z,18.55
2023-05-16T04:08:19.123Z,18.60
2023-05-16T04:10:45.768Z,17.70
2023-05-16T04:13:16.255Z,19.23
2023-05-16T04:15:44.056Z,17.35
2023-05-16T04:18:13.869Z,19.00
2023-05-16T04:20:46.920Z,18.90
2023-05-16T04:23:17.893Z,17.95
2023-05-16T04:25:51.006Z,17.55
2023-05-16T04:28:21.649Z,18.35
2023-05-16T04:30:49.938Z,17.35
2023-05-16T04:33:20.368Z,16.52
2023-05-16T04:35:47.874Z,18.27
2023-05-16T04:38:18.368Z,18.85
2023-05-16T04:40:50.039Z,16.20
2023-05-16T04:43:21.582Z,17.10
2023-05-16T04:45:53.258Z,17.42
2023-05-16T04:48:23.213Z,25.50
2023-05-16T04:50:50.566Z,18.55
2023-05-16T04:53:21.119Z,18.38
2023-05-16T04:59:21.536Z,17.80
2023-05-16T05:01:49.124Z,16.38
2023-05-16T05:04:17.016Z,17.05
2023-05-16T05:06:43.678Z,18.35
2023-05-16T05:09:14.169Z,17.00
2023-05-16T05:11:42.275Z,19.02
2023-05-16T05:14:09.398Z,17.23
2023-05-16T05:16:36.798Z,17.33
2023-05-16T05:19:12.390Z,16.92
2023-05-16T05:21:40.888Z,16.25
2023-05-16T05:24:08.248Z,16.88
2023-05-16T05:26:46.766Z,16.25
2023-05-16T05:29:15.487Z,17.83
2023-05-16T05:31:45.465Z,16.77
2023-05-16T05:34:13.784Z,16.77
2023-05-16T05:36:41.165Z,15.30
2023-05-16T05:39:13.635Z,16.60
2023-05-16T05:41:41.626Z,16.08
2023-05-16T05:44:09.951Z,16.25
2023-05-16T05:47:06.282Z,16.80
2023-05-16T05:49:35.152Z,15.40
2023-05-16T05:52:05.273Z,16.23
2023-05-16T05:54:33.568Z,15.57
2023-05-16T05:57:29.206Z,15.35
2023-05-16T05:59:57.222Z,16.15
2023-05-16T06:02:24.076Z,15.82
2023-05-16T06:04:52.115Z,13.93
2023-05-16T06:07:19.025Z,16.33
2023-05-16T06:09:46.140Z,16.15
2023-05-16T06:12:16.355Z,15.52
2023-05-16T06:14:43.767Z,15.02
2023-05-16T06:17:13.786Z,14.60
2023-05-16T06:19:41.265Z,16.48
2023-05-16T06:22:09.473Z,14.80
2023-05-16T06:24:38.902Z,15.10
2023-05-16T06:27:06.560Z,13.00
2023-05-16T06:29:33.285Z,13.70
2023-05-16T06:32:01.140Z,14.07
2023-05-16T06:34:56.932Z,15.20
2023-05-16T06:37:25.385Z,13.18
2023-05-16T06:39:55.548Z,14.63
2023-05-16T06:42:23.388Z,18.50
2023-05-16T06:44:50.552Z,19.05
2023-05-16T06:47:18.008Z,15.23
2023-05-16T06:49:50.462Z,11.07
2023-05-16T06:52:39.459Z,13.73
2023-05-16T06:55:10.785Z,11.63
2023-05-16T06:57:43.623Z,11.43
2023-05-16T07:00:11.909Z,10.90
2023-05-16T07:03:06.776Z,10.13
2023-05-16T07:05:34.900Z,10.27
2023-05-16T07:08:07.826Z,9.88
2023-05-16T07:10:41.302Z,9.70
2023-05-16T07:13:11.467Z,8.90
2023-05-16T07:15:40.384Z,9.00
2023-05-16T07:18:10.702Z,9.57
2023-05-16T07:20:37.917Z,8.13
2023-05-16T07:23:06.552Z,8.38
2023-05-16T07:25:38.708Z,8.77
2023-05-16T07:28:09.523Z,8.43
2023-05-16T07:30:40.418Z,7.25
2023-05-16T07:33:13.481Z,7.78
2023-05-16T07:35:40.454Z,7.60
2023-05-16T07:38:07.578Z,7.50
2023-05-16T07:40:36.421Z,7.63
2023-05-16T07:43:03.490Z,6.20
2023-05-16T07:45:32.449Z,6.53
2023-05-16T07:48:01.632Z,6.55
2023-05-16T07:50:28.627Z,5.72
2023-05-16T07:53:00.680Z,6.07
2023-05-16T07:55:31.859Z,4.75
2023-05-16T07:57:58.623Z,4.20
2023-05-16T08:00:25.358Z,4.72
2023-05-16T08:02:54.719Z,4.05
2023-05-16T08:05:21.545Z,4.30
2023-05-16T08:13:41.063Z,3.83
2023-05-16T08:16:07.914Z,3.40
2023-05-16T08:18:40.120Z,2.35
2023-05-16T08:21:09.311Z,2.35
2023-05-16T08:23:38.440Z,2.03
2023-05-16T08:26:08.716Z,2.55
2023-05-16T08:28:35.708Z,2.40
2023-05-16T08:31:27.484Z,2.85
2023-05-16T08:33:56.941Z,2.25
2023-05-16T08:36:25.927Z,2.17
2023-05-16T08:38:52.675Z,2.22
2023-05-16T08:41:46.239Z,2.05
2023-05-16T08:44:20.765Z,2.15
2023-05-16T08:46:52.445Z,2.90
2023-05-16T08:49:23.474Z,2.90
2023-05-16T08:52:21.150Z,2.38
2023-05-16T08:55:09.371Z,2.33
2023-05-16T08:57:42.431Z,2.17
2023-05-16T09:00:13.224Z,2.22
2023-05-16T09:02:46.752Z,2.00
2023-05-16T09:05:15.196Z,1.92
2023-05-16T09:07:48.638Z,2.17
2023-05-16T09:10:18.623Z,2.00
2023-05-16T09:12:48.731Z,1.75
2023-05-16T09:15:18.123Z,1.77
2023-05-16T09:17:47.318Z,1.50
2023-05-16T09:20:21.115Z,1.60
2023-05-16T09:22:54.812Z,1.50
2023-05-16T09:25:31.458Z,2.03
2023-05-16T09:28:03.157Z,1.38
2023-05-16T09:30:33.916Z,1.60
2023-05-16T09:33:02.123Z,1.88
2023-05-16T09:35:44.004Z,1.20
2023-05-16T09:38:15.987Z,1.00
2023-05-16T09:43:46.023Z,11.70
2023-05-16T09:46:18.991Z,1.40
2023-05-16T09:48:51.459Z,1.45
2023-05-16T09:51:22.541Z,1.75
2023-05-16T09:53:51.019Z,5.68
2023-05-16T09:56:23.508Z,12.88
2023-05-16T09:58:51.724Z,19.27
2023-05-16T10:01:23.176Z,2.05
2023-05-16T10:03:50.938Z,2.53
2023-05-16T10:06:18.290Z,2.50
2023-05-16T10:08:46.200Z,1.50
2023-05-16T10:11:16.844Z,1.55
2023-05-16T10:13:50.108Z,1.55
2023-05-16T10:16:21.122Z,2.10
2023-05-16T10:18:53.214Z,2.25
2023-05-16T10:21:27.415Z,1.70
2023-05-16T10:24:01.130Z,1.88
2023-05-16T10:26:30.195Z,1.50
2023-05-16T10:29:01.223Z,2.15
2023-05-16T10:31:29.346Z,1.50
2023-05-16T10:33:57.066Z,1.52
2023-05-16T10:36:25.234Z,1.15
2023-05-16T10:38:54.533Z,1.17
2023-05-16T10:47:26.023Z,1.10
2023-05-16T10:52:33.804Z,1.10
2023-05-16T10:55:28.432Z,1.00
2023-05-16T10:57:56.685Z,1.38
2023-05-16T11:00:24.965Z,1.75
2023-05-16T11:03:24.589Z,1.50
2023-05-16T11:06:03.237Z,1.02
2023-05-16T11:08:29.959Z,0.80
2023-05-16T11:11:36.549Z,0.68
2023-05-16T11:14:04.630Z,0.70
2023-05-16T11:16:34.312Z,0.70
2023-05-16T11:19:06.518Z,0.70
2023-05-16T11:22:11.920Z,0.63
2023-05-16T11:24:39.493Z,0.50
2023-05-16T11:27:06.615Z,0.55
2023-05-16T11:29:36.226Z,0.73
2023-05-16T11:32:05.136Z,0.80
2023-05-16T11:34:39.013Z,0.80
2023-05-16T11:37:06.153Z,0.52
2023-05-16T11:39:33.707Z,0.73
2023-05-16T11:42:01.760Z,0.90
2023-05-16T11:44:29.554Z,0.80
2023-05-16T11:47:01.110Z,0.80
2023-05-16T11:49:34.951Z,0.73
2023-05-16T11:52:03.258Z,0.80
2023-05-16T11:54:31.764Z,0.95
2023-05-16T11:56:59.077Z,0.70
2023-05-16T11:59:26.445Z,0.80
2023-05-16T12:01:53.227Z,1.00
2023-05-16T12:04:21.783Z,1.02
2023-05-16T12:06:59.510Z,0.77
2023-05-16T12:09:57.292Z,0.80
2023-05-16T12:12:28.511Z,1.23
2023-05-16T12:14:56.684Z,1.15
2023-05-16T12:17:25.090Z,1.35
2023-05-16T12:19:54.586Z,1.45
2023-05-16T12:22:27.704Z,1.05
2023-05-16T12:25:28.826Z,1.00
2023-05-16T12:28:01.069Z,0.80
2023-05-16T12:30:30.622Z,0.90
2023-05-16T12:33:02.311Z,0.80
2023-05-16T12:35:40.296Z,0.80
2023-05-16T12:38:10.348Z,1.00
2023-05-16T12:41:02.827Z,0.80
2023-05-16T12:43:31.681Z,0.75
2023-05-16T12:46:00.545Z,0.80
2023-05-16T12:48:34.937Z,0.90
2023-05-16T12:51:28.946Z,0.80
2023-05-16T12:54:09.401Z,0.90
2023-05-16T12:56:43.295Z,0.88
2023-05-16T12:59:13.907Z,0.73
2023-05-16T13:01:45.032Z,0.80
2023-05-16T13:04:20.572Z,0.98
2023-05-16T13:06:57.419Z,0.85
2023-05-16T13:09:32.070Z,1.13
2023-05-16T13:12:01.898Z,1.30
2023-05-16T13:20:21.628Z,1.27
2023-05-16T13:22:52.024Z,1.17
2023-05-16T13:25:25.523Z,1.38
2023-05-16T13:27:56.041Z,1.25
2023-05-16T13:30:24.753Z,1.58
2023-05-16T13:32:52.188Z,1.48
2023-05-16T13:35:26.914Z,1.20
2023-05-16T13:37:55.108Z,1.30
2023-05-16T13:40:25.404Z,1.52
2023-05-16T13:42:52.161Z,1.77
2023-05-16T13:45:47.781Z,1.30
2023-05-16T13:48:14.618Z,1.98
2023-05-16T13:50:44.983Z,1.10
2023-05-16T13:53:22.415Z,1.02
2023-05-16T13:55:49.157Z,1.25
2023-05-16T13:58:17.111Z,1.60
2023-05-16T14:00:50.021Z,1.65
2023-05-16T14:03:17.536Z,1.30
2023-05-16T14:05:44.773Z,1.50
2023-05-16T14:08:16.067Z,1.65
2023-05-16T14:10:44.114Z,1.65
2023-05-16T14:13:11.776Z,1.35
2023-05-16T14:15:41.796Z,1.33
2023-05-16T14:18:09.646Z,1.30
2023-05-16T14:20:38.181Z,1.50
2023-05-16T14:23:09.466Z,1.45
2023-05-16T14:25:40.072Z,1.40
2023-05-16T14:28:08.404Z,1.63
2023-05-16T14:30:41.667Z,1.70
2023-05-16T14:33:19.122Z,1.50
2023-05-16T14:35:49.471Z,1.13
2023-05-16T14:38:16.425Z,1.10
2023-05-16T14:40:43.632Z,2.05
2023-05-16T14:43:11.332Z,1.40
2023-05-16T14:45:48.259Z,1.40
2023-05-16T14:48:16.514Z,1.10
2023-05-16T14:50:43.856Z,1.05
2023-05-16T14:53:14.819Z,1.48
2023-05-16T14:55:44.985Z,1.05
2023-05-16T14:58:15.730Z,1.15
2023-05-16T15:00:42.851Z,1.25
2023-05-16T15:03:09.949Z,1.42
2023-05-16T15:05:37.099Z,1.33
2023-05-16T15:08:05.361Z,1.17
2023-05-16T15:10:36.894Z,1.15
2023-05-16T15:13:04.009Z,1.53
2023-05-16T15:15:33.173Z,1.23
2023-05-16T15:18:02.627Z,0.95
2023-05-16T15:20:30.871Z,0.90
2023-05-16T15:22:58.700Z,0.90
2023-05-16T15:25:27.750Z,1.77
2023-05-16T15:27:56.493Z,0.90
2023-05-16T15:30:24.773Z,1.38
2023-05-16T15:32:51.701Z,1.10
2023-05-16T15:35:19.666Z,1.00
2023-05-16T15:37:46.816Z,0.90
2023-05-16T15:40:13.955Z,1.02
2023-05-16T15:42:43.408Z,1.05
2023-05-16T15:45:38.682Z,0.80
2023-05-16T15:48:17.698Z,0.80
2023-05-16T15:50:45.256Z,1.10
2023-05-16T15:53:15.798Z,0.88
2023-05-16T15:55:42.516Z,1.30
2023-05-16T15:58:10.317Z,1.13
2023-05-16T16:00:40.392Z,0.93
2023-05-16T16:03:09.276Z,1.30
2023-05-16T16:05:37.070Z,1.55
2023-05-16T16:08:04.017Z,0.93
2023-05-16T16:10:31.932Z,1.45
2023-05-16T16:13:00.571Z,1.10
2023-05-16T16:15:33.326Z,1.40
2023-05-16T16:18:01.460Z,1.00
2023-05-16T16:20:31.122Z,1.08
2023-05-16T16:22:58.233Z,0.95
2023-05-16T16:25:26.453Z,0.98
2023-05-16T16:27:55.260Z,1.38
2023-05-16T16:30:22.058Z,1.08
2023-05-16T16:32:51.353Z,1.02
2023-05-16T16:41:26.679Z,0.90
2023-05-16T16:59:19.904Z,0.77
2023-05-16T17:01:47.597Z,1.10
2023-05-16T17:04:15.557Z,1.20
2023-05-16T17:06:43.426Z,0.85
2023-05-16T17:09:13.484Z,0.93
2023-05-16T17:12:07.946Z,1.02
2023-05-16T17:14:49.531Z,1.50
2023-05-16T17:17:17.429Z,1.17
2023-05-16T17:19:52.249Z,1.20
2023-05-16T17:23:10.985Z,0.90
2023-05-16T17:26:07.017Z,1.05
2023-05-16T17:28:37.130Z,0.70
2023-05-16T17:31:07.322Z,1.20
2023-05-16T17:33:40.507Z,0.93
2023-05-16T17:36:10.649Z,0.68
2023-05-16T17:38:41.358Z,0.63
2023-05-16T17:41:09.670Z,0.98
2023-05-16T17:43:39.103Z,0.82
2023-05-16T17:46:07.050Z,0.90
2023-05-16T17:48:38.995Z,0.88
2023-05-16T17:51:10.189Z,1.50
2023-05-16T17:53:39.957Z,1.05
2023-05-16T17:56:34.036Z,1.35
2023-05-16T17:59:29.847Z,1.23
2023-05-16T18:02:01.268Z,1.20
2023-05-16T18:04:30.736Z,1.17
2023-05-16T18:07:00.714Z,0.82
2023-05-16T18:09:35.049Z,0.73
2023-05-16T18:12:06.940Z,0.70
2023-05-16T18:14:36.989Z,1.20
2023-05-16T18:17:12.604Z,0.80
2023-05-16T18:19:40.885Z,0.98
2023-05-16T18:22:11.866Z,0.80
2023-05-16T18:24:41.374Z,0.75
2023-05-16T18:27:08.479Z,0.70
2023-05-16T18:29:40.240Z,0.88
2023-05-16T18:32:10.202Z,0.80
2023-05-16T18:34:37.082Z,0.85
2023-05-16T18:37:07.535Z,0.60
2023-05-16T18:39:40.868Z,0.70
2023-05-16T18:42:18.238Z,0.75
2023-05-16T18:44:45.496Z,0.68
2023-05-16T18:47:15.950Z,0.80
2023-05-16T18:49:43.454Z,0.73
2023-05-16T18:52:11.814Z,0.68
2023-05-16T18:54:41.085Z,0.70
2023-05-16T18:57:12.382Z,0.70
2023-05-16T18:59:42.480Z,0.80
2023-05-16T19:02:13.896Z,1.50
2023-05-16T19:04:40.761Z,1.10
2023-05-16T19:07:09.222Z,0.93
2023-05-16T19:09:43.011Z,0.88
2023-05-16T19:12:37.661Z,0.60
2023-05-16T19:15:11.423Z,1.13
2023-05-16T19:17:41.011Z,1.10
2023-05-16T19:20:10.255Z,1.30
2023-05-16T19:34:45.686Z,1.42
2023-05-16T19:37:12.695Z,0.88
2023-05-16T19:39:41.624Z,1.20
2023-05-16T19:42:08.462Z,0.80
2023-05-16T19:44:42.022Z,1.35
2023-05-16T19:47:11.015Z,1.65
2023-05-16T19:49:41.096Z,1.60
2023-05-16T19:52:12.421Z,1.55
2023-05-16T19:54:40.638Z,1.70
2023-05-16T19:57:07.652Z,2.58
2023-05-16T19:59:35.503Z,1.73
2023-05-16T20:02:03.593Z,1.70
2023-05-16T20:04:32.603Z,1.50
2023-05-16T20:07:00.963Z,1.67
2023-05-16T20:12:29.113Z,1.60
2023-05-16T20:14:55.903Z,1.83
2023-05-16T20:17:50.447Z,1.20
2023-05-16T20:20:17.381Z,1.10
2023-05-16T20:22:47.813Z,0.93
2023-05-16T20:25:14.563Z,1.40
2023-05-16T20:27:48.471Z,0.93
2023-05-16T20:30:18.669Z,0.70
2023-05-16T20:32:45.709Z,0.82
2023-05-16T20:35:14.210Z,0.73
2023-05-16T20:37:43.930Z,1.30
2023-05-16T20:40:11.883Z,1.20
2023-05-16T20:42:38.601Z,1.40
2023-05-16T20:45:10.057Z,1.15
2023-05-16T20:47:38.101Z,1.08
2023-05-16T20:50:05.535Z,1.40
2023-05-16T20:52:34.310Z,1.10
2023-05-16T20:55:01.082Z,1.42
2023-05-16T20:57:29.091Z,1.20
2023-05-16T20:59:59.523Z,1.40
2023-05-16T21:02:29.053Z,0.80
2023-05-16T21:05:14.493Z,1.10
2023-05-16T21:07:47.664Z,0.98
2023-05-16T21:10:19.114Z,0.82
2023-05-16T21:12:49.790Z,0.75
2023-05-16T21:15:17.658Z,0.75
2023-05-16T21:17:49.286Z,0.90
2023-05-16T21:20:17.068Z,0.95
2023-05-16T21:22:47.803Z,1.40
2023-05-16T21:25:47.135Z,1.58
2023-05-16T21:28:13.905Z,1.63
2023-05-16T21:30:40.955Z,1.38
2023-05-16T21:33:09.600Z,1.20
2023-05-16T21:35:39.712Z,1.02
2023-05-16T21:38:13.568Z,0.77
2023-05-16T21:40:43.979Z,0.88
2023-05-16T21:43:10.770Z,1.05
2023-05-16T21:45:41.184Z,1.10
2023-05-16T21:48:10.231Z,0.80
2023-05-16T21:50:37.452Z,1.48
2023-05-16T21:53:05.286Z,0.93
2023-05-16T21:55:59.833Z,0.90
2023-05-16T21:58:28.018Z,1.17
2023-05-16T22:01:01.324Z,1.00
2023-05-16T22:03:28.138Z,1.00
2023-05-16T22:05:57.454Z,1.05
2023-05-16T22:14:17.195Z,0.93
2023-05-16T22:16:45.347Z,1.08
2023-05-16T22:19:14.482Z,0.88
2023-05-16T22:21:42.473Z,0.93
2023-05-16T22:24:12.500Z,1.00
2023-05-16T22:26:52.271Z,0.90
2023-05-16T22:29:20.683Z,1.40
2023-05-16T22:31:53.897Z,0.75
2023-05-16T22:34:23.546Z,0.93
2023-05-16T22:36:53.770Z,0.80
2023-05-16T22:39:20.550Z,0.88
2023-05-16T22:44:36.451Z,0.60
2023-05-16T22:56:13.900Z,0.95
2023-05-16T22:58:41.409Z,1.10
2023-05-16T23:01:12.915Z,0.93
2023-05-16T23:03:44.873Z,1.17
2023-05-16T23:06:11.844Z,0.80
2023-05-16T23:08:44.416Z,0.73
2023-05-16T23:11:16.283Z,0.80
2023-05-16T23:13:46.238Z,0.70
2023-05-16T23:16:13.213Z,0.82
2023-05-16T23:18:42.069Z,0.60
2023-05-16T23:21:10.166Z,1.08
2023-05-16T23:23:37.291Z,0.77
2023-05-16T23:26:05.413Z,0.90
2023-05-16T23:28:57.849Z,1.00
2023-05-16T23:31:30.161Z,0.75
2023-05-16T23:34:00.481Z,1.10
2023-05-16T23:36:27.395Z,0.65
2023-05-16T23:38:54.281Z,0.75
2023-05-16T23:41:22.022Z,1.38
2023-05-16T23:43:51.386Z,0.90
2023-05-16T23:46:24.883Z,0.93
2023-05-16T23:48:52.985Z,0.88
2023-05-16T23:51:21.840Z,1.30
2023-05-16T23:53:52.008Z,0.70
2023-05-16T23:56:23.308Z,1.20
2023-05-16T23:58:50.077Z,0.90
